| time (UTC) | temp C | wind direction | speed KPH | gust KPH | rain 1hr cm | rain 24hr cm | rain mn cm | humidity % | barometer mb |
| 20260507221507 | 15 | 36 | 0.0 | 0.0 | 0.00 | 0.00 | 0.00 | 83 | 1015.4 |
| 20260507221006 | 15 | 36 | 0.0 | 0.0 | 0.00 | 0.00 | 0.00 | 82 | 1015.4 |
| 20260507220507 | 15 | 33 | 0.0 | 0.0 | 0.00 | 0.00 | 0.00 | 82 | 1015.3 |
| 20260507220005 | 15 | 61 | 0.0 | 0.0 | 0.00 | 0.00 | 0.00 | 82 | 1015.3 |
| 20260507215003 | 15 | 65 | 0.0 | 0.0 | 0.00 | 0.00 | 0.00 | 81 | 1015.4 |
| 20260507214503 | 15 | 98 | 0.0 | 1.6 | 0.00 | 0.00 | 0.00 | 81 | 1015.4 |
| 20260507214002 | 15 | 98 | 0.0 | 1.6 | 0.00 | 0.00 | 0.00 | 80 | 1015.2 |
| 20260507213003 | 15 | 33 | 1.6 | 6.4 | 0.00 | 0.00 | 0.00 | 79 | 1015.1 |
| 20260507212003 | 15 | 36 | 3.2 | 8.0 | 0.00 | 0.00 | 0.00 | 79 | 1015.2 |
| 20260507211503 | 15 | 53 | 3.2 | 9.7 | 0.00 | 0.00 | 0.00 | 79 | 1015.2 |
| 20260507211002 | 15 | 67 | 1.6 | 9.7 | 0.00 | 0.00 | 0.00 | 78 | 1015.2 |
| 20260507210502 | 15 | 50 | 0.0 | 0.0 | 0.00 | 0.00 | 0.00 | 78 | 1015.3 |
| 20260507210002 | 15 | 40 | 0.0 | 0.0 | 0.00 | 0.00 | 0.00 | 78 | 1015.3 |
| 20260507204949 | 15 | 17 | 3.2 | 8.0 | 0.00 | 0.00 | 0.00 | 78 | 1015.2 |
| 20260507204444 | 15 | 15 | 4.8 | 8.0 | 0.00 | 0.00 | 0.00 | 77 | 1015.1 |
| 20260507203938 | 15 | 9 | 3.2 | 8.0 | 0.00 | 0.00 | 0.00 | 76 | 1015.0 |
| 20260507203433 | 16 | 28 | 0.0 | 8.0 | 0.00 | 0.00 | 0.00 | 75 | 1015.1 |
| 20260507202931 | 16 | 171 | 0.0 | 0.0 | 0.00 | 0.00 | 0.00 | 75 | 1014.9 |
| 20260507202431 | 16 | 171 | 0.0 | 0.0 | 0.00 | 0.00 | 0.00 | 74 | 1014.8 |
| 20260507201931 | 16 | 171 | 0.0 | 0.0 | 0.00 | 0.00 | 0.00 | 74 | 1014.7 |
| 20260507201432 | 16 | 186 | 0.0 | 0.0 | 0.00 | 0.00 | 0.00 | 73 | 1014.7 |
| 20260507200930 | 16 | 161 | 0.0 | 0.0 | 0.00 | 0.00 | 0.00 | 73 | 1014.6 |
| 20260507200432 | 16 | 175 | 0.0 | 0.0 | 0.00 | 0.00 | 0.00 | 73 | 1014.6 |
| 20260507195931 | 16 | 157 | 0.0 | 0.0 | 0.00 | 0.00 | 0.00 | 72 | 1014.6 |
| 20260507195430 | 16 | 163 | 0.0 | 8.0 | 0.00 | 0.00 | 0.00 | 72 | 1014.5 |
| 20260507194930 | 16 | 155 | 0.0 | 8.0 | 0.00 | 0.00 | 0.00 | 72 | 1014.5 |
| 20260507194432 | 17 | 144 | 0.0 | 6.4 | 0.00 | 0.00 | 0.00 | 72 | 1014.6 |
| 20260507193931 | 17 | 121 | 1.6 | 11.3 | 0.00 | 0.00 | 0.00 | 72 | 1014.5 |
| 20260507193431 | 17 | 175 | 1.6 | 11.3 | 0.00 | 0.00 | 0.00 | 72 | 1014.4 |
| 20260507192930 | 17 | 134 | 0.0 | 0.0 | 0.00 | 0.00 | 0.00 | 71 | 1014.3 |
| 20260507191930 | 17 | 156 | 3.2 | 9.7 | 0.00 | 0.00 | 0.00 | 71 | 1014.2 |
| 20260507191431 | 17 | 113 | 1.6 | 8.0 | 0.00 | 0.00 | 0.00 | 69 | 1014.0 |
| 20260507190927 | 17 | 148 | 1.6 | 9.7 | 0.00 | 0.00 | 0.00 | 69 | 1014.0 |
| 20260507185914 | 18 | 163 | 3.2 | 9.7 | 0.00 | 0.00 | 0.00 | 70 | 1013.7 |
| 20260507185410 | 18 | 142 | 3.2 | 11.3 | 0.00 | 0.00 | 0.00 | 70 | 1013.7 |
| 20260507184904 | 18 | 119 | 1.6 | 11.3 | 0.00 | 0.00 | 0.00 | 70 | 1013.6 |
| 20260507184403 | 18 | 178 | 1.6 | 11.3 | 0.00 | 0.00 | 0.00 | 69 | 1013.6 |
| 20260507183904 | 18 | 160 | 3.2 | 11.3 | 0.00 | 0.00 | 0.00 | 69 | 1013.5 |
| 20260507183403 | 18 | 119 | 3.2 | 11.3 | 0.00 | 0.00 | 0.00 | 67 | 1013.4 |
| 20260507182903 | 18 | 154 | 1.6 | 8.0 | 0.00 | 0.00 | 0.00 | 67 | 1013.3 |
| 20260507182404 | 18 | 142 | 0.0 | 8.0 | 0.00 | 0.00 | 0.00 | 66 | 1013.3 |
| 20260507181903 | 18 | 160 | 1.6 | 12.9 | 0.00 | 0.00 | 0.00 | 66 | 1013.2 |
| 20260507180903 | 19 | 137 | 1.6 | 9.7 | 0.00 | 0.00 | 0.00 | 69 | 1013.1 |
| 20260507180402 | 19 | 115 | 1.6 | 11.3 | 0.00 | 0.00 | 0.00 | 71 | 1013.0 |
| 20260507175903 | 19 | 115 | 3.2 | 11.3 | 0.00 | 0.00 | 0.00 | 70 | 1012.9 |
| 20260507175402 | 19 | 82 | 1.6 | 11.3 | 0.00 | 0.00 | 0.00 | 69 | 1012.8 |
| 20260507174903 | 19 | 88 | 0.0 | 4.8 | 0.00 | 0.00 | 0.00 | 68 | 1012.7 |
| 20260507173902 | 20 | 119 | 3.2 | 14.5 | 0.00 | 0.00 | 0.00 | 67 | 1012.5 |
| 20260507173359 | 20 | 89 | 3.2 | 14.5 | 0.00 | 0.00 | 0.00 | 64 | 1012.4 |
| 20260507172901 | 20 | 81 | 0.0 | 11.3 | 0.00 | 0.00 | 0.00 | 61 | 1012.4 |
| 20260507172359 | 20 | 134 | 0.0 | 0.0 | 0.00 | 0.00 | 0.00 | 61 | 1012.3 |
| 20260507171859 | 20 | 109 | 0.0 | 0.0 | 0.00 | 0.00 | 0.00 | 61 | 1012.4 |
| 20260507170859 | 20 | 87 | 0.0 | 1.6 | 0.00 | 0.00 | 0.00 | 59 | 1012.2 |
| 20260507165859 | 20 | 32 | 1.6 | 8.0 | 0.00 | 0.00 | 0.00 | 58 | 1012.2 |
| 20260507165401 | 20 | 5 | 0.0 | 8.0 | 0.00 | 0.00 | 0.00 | 57 | 1012.2 |
| 20260507164900 | 20 | 32 | 0.0 | 3.2 | 0.00 | 0.00 | 0.00 | 57 | 1012.2 |
| 20260507164358 | 20 | 38 | 0.0 | 4.8 | 0.00 | 0.00 | 0.00 | 57 | 1012.2 |
| 20260507162859 | 21 | 296 | 0.0 | 0.0 | 0.00 | 0.00 | 0.00 | 48 | 1012.2 |
| 20260507162359 | 21 | 250 | 0.0 | 0.0 | 0.00 | 0.00 | 0.00 | 49 | 1012.3 |
| 20260507161859 | 21 | 237 | 1.6 | 11.3 | 0.00 | 0.00 | 0.00 | 48 | 1012.2 |
| 20260507161358 | 21 | 210 | 1.6 | 19.3 | 0.00 | 0.00 | 0.00 | 47 | 1012.1 |
| 20260507160856 | 22 | 227 | 3.2 | 19.3 | 0.00 | 0.00 | 0.00 | 47 | 1012.1 |
| 20260507160350 | 22 | 197 | 0.0 | 14.5 | 0.00 | 0.00 | 0.00 | 47 | 1012.1 |
| 20260507155845 | 22 | 234 | 1.6 | 11.3 | 0.00 | 0.00 | 0.00 | 47 | 1012.1 |
| 20260507154832 | 22 | 240 | 3.2 | 12.9 | 0.00 | 0.00 | 0.00 | 44 | 1012.2 |
| 20260507154331 | 22 | 211 | 3.2 | 12.9 | 0.00 | 0.00 | 0.00 | 45 | 1012.1 |
| 20260507153831 | 22 | 223 | 3.2 | 17.7 | 0.00 | 0.00 | 0.00 | 46 | 1012.0 |
| 20260507153330 | 22 | 200 | 3.2 | 17.7 | 0.00 | 0.00 | 0.00 | 46 | 1012.0 |
| 20260507152834 | 22 | 205 | 3.2 | 11.3 | 0.00 | 0.00 | 0.00 | 46 | 1012.0 |
| 20260507152330 | 22 | 225 | 3.2 | 12.9 | 0.00 | 0.00 | 0.00 | 46 | 1012.0 |
| 20260507151831 | 22 | 215 | 4.8 | 17.7 | 0.00 | 0.00 | 0.00 | 46 | 1012.0 |
| 20260507151331 | 22 | 242 | 6.4 | 19.3 | 0.00 | 0.00 | 0.00 | 46 | 1011.9 |
| 20260507145831 | 23 | 189 | 3.2 | 22.5 | 0.00 | 0.00 | 0.00 | 45 | 1011.9 |
| 20260507145331 | 23 | 218 | 8.0 | 22.5 | 0.00 | 0.00 | 0.00 | 44 | 1012.0 |
| 20260507144330 | 23 | 215 | 3.2 | 22.5 | 0.00 | 0.00 | 0.00 | 43 | 1012.0 |
| 20260507143832 | 23 | 204 | 1.6 | 16.1 | 0.00 | 0.00 | 0.00 | 45 | 1012.0 |
| 20260507143330 | 23 | 225 | 3.2 | 16.1 | 0.00 | 0.00 | 0.00 | 45 | 1012.0 |
| 20260507142830 | 23 | 252 | 6.4 | 20.9 | 0.00 | 0.00 | 0.00 | 46 | 1012.1 |
| 20260507142328 | 23 | 194 | 4.8 | 20.9 | 0.00 | 0.00 | 0.00 | 46 | 1012.1 |
| 20260507141320 | 22 | 175 | 0.0 | 0.0 | 0.00 | 0.00 | 0.00 | 46 | 1012.2 |
| 20260507140820 | 22 | 236 | 0.0 | 1.6 | 0.00 | 0.00 | 0.00 | 44 | 1012.2 |
| 20260507140421 | 23 | 237 | 4.8 | 19.3 | 0.00 | 0.00 | 0.00 | 44 | 1012.2 |
| 20260507135419 | 22 | 190 | 0.0 | 4.8 | 0.00 | 0.00 | 0.00 | 47 | 1012.2 |
| 20260507134918 | 22 | 284 | 0.0 | 0.0 | 0.00 | 0.00 | 0.00 | 45 | 1012.2 |
| 20260507133915 | 23 | 229 | 3.2 | 17.7 | 0.00 | 0.00 | 0.00 | 44 | 1012.4 |
| 20260507132912 | 23 | 274 | 1.6 | 14.5 | 0.00 | 0.00 | 0.00 | 45 | 1012.3 |
| 20260507132411 | 23 | 215 | 3.2 | 16.1 | 0.00 | 0.00 | 0.00 | 45 | 1012.4 |
| 20260507131911 | 23 | 231 | 3.2 | 17.7 | 0.00 | 0.00 | 0.00 | 45 | 1012.4 |
| 20260507131411 | 23 | 219 | 1.6 | 17.7 | 0.00 | 0.00 | 0.00 | 46 | 1012.4 |
| 20260507130910 | 23 | 217 | 3.2 | 17.7 | 0.00 | 0.03 | 0.00 | 46 | 1012.4 |
| 20260507130409 | 23 | 206 | 6.4 | 17.7 | 0.00 | 0.05 | 0.00 | 45 | 1012.4 |
| 20260507125908 | 23 | 163 | 4.8 | 12.9 | 0.00 | 0.15 | 0.00 | 47 | 1012.4 |
| 20260507124907 | 22 | 223 | 3.2 | 17.7 | 0.00 | 0.38 | 0.00 | 50 | 1012.4 |
| 20260507124407 | 21 | 246 | 3.2 | 16.1 | 0.00 | 0.43 | 0.00 | 51 | 1012.5 |
| 20260507123403 | 21 | 235 | 0.0 | 8.0 | 0.00 | 0.46 | 0.00 | 50 | 1012.5 |
| 20260507122857 | 22 | 248 | 1.6 | 11.3 | 0.00 | 0.46 | 0.00 | 48 | 1012.4 |
| 20260507121844 | 22 | 223 | 4.8 | 17.7 | 0.00 | 0.46 | 0.00 | 50 | 1012.5 |
| 20260507121342 | 22 | 186 | 6.4 | 22.5 | 0.00 | 0.46 | 0.00 | 51 | 1012.5 |
| 20260507120838 | 22 | 185 | 6.4 | 22.5 | 0.00 | 0.46 | 0.00 | 50 | 1012.6 |
| 20260507115604 | 22 | 259 | 3.2 | 17.7 | 0.00 | 0.46 | 0.00 | 54 | 1012.6 |
| 20260507115103 | 22 | 272 | 3.2 | 19.3 | 0.00 | 0.46 | 0.00 | 54 | 1012.6 |
| 20260507114603 | 21 | 229 | 3.2 | 19.3 | 0.00 | 0.46 | 0.00 | 53 | 1012.7 |
| 20260507113103 | 21 | 259 | 3.2 | 14.5 | 0.00 | 0.46 | 0.00 | 54 | 1012.7 |
| 20260507112103 | 21 | 169 | 3.2 | 14.5 | 0.00 | 0.46 | 0.00 | 55 | 1012.9 |
| 20260507111603 | 21 | 239 | 1.6 | 14.5 | 0.00 | 0.46 | 0.00 | 53 | 1012.9 |
| 20260507111103 | 21 | 215 | 3.2 | 17.7 | 0.00 | 0.46 | 0.00 | 54 | 1013.0 |
| 20260507110602 | 21 | 207 | 4.8 | 19.3 | 0.00 | 0.46 | 0.00 | 54 | 1013.0 |
| 20260507110103 | 21 | 207 | 6.4 | 19.3 | 0.00 | 0.46 | 0.00 | 55 | 1013.0 |
| 20260507105609 | 21 | 205 | 4.8 | 19.3 | 0.00 | 0.46 | 0.00 | 58 | 1013.1 |
| 20260507105103 | 21 | 236 | 6.4 | 17.7 | 0.00 | 0.46 | 0.00 | 58 | 1013.2 |
| 20260507104604 | 20 | 185 | 9.7 | 19.3 | 0.00 | 0.46 | 0.00 | 60 | 1013.1 |
| 20260507104103 | 21 | 237 | 6.4 | 19.3 | 0.00 | 0.46 | 0.00 | 61 | 1013.3 |
| 20260507103602 | 20 | 182 | 3.2 | 16.1 | 0.00 | 0.46 | 0.00 | 61 | 1013.3 |
| 20260507103103 | 20 | 186 | 3.2 | 16.1 | 0.00 | 0.46 | 0.00 | 61 | 1013.4 |
| 20260507102602 | 20 | 213 | 1.6 | 16.1 | 0.00 | 0.46 | 0.00 | 59 | 1013.4 |
| 20260507102105 | 20 | 257 | 3.2 | 16.1 | 0.00 | 0.46 | 0.00 | 58 | 1013.4 |
| 20260507101602 | 20 | 240 | 3.2 | 14.5 | 0.00 | 0.46 | 0.00 | 56 | 1013.5 |
| 20260507101102 | 20 | 240 | 3.2 | 14.5 | 0.00 | 0.46 | 0.00 | 58 | 1013.5 |
| 20260507100603 | 20 | 188 | 3.2 | 19.3 | 0.00 | 0.46 | 0.00 | 60 | 1013.5 |
| 20260507095603 | 19 | 216 | 1.6 | 11.3 | 0.00 | 0.46 | 0.00 | 64 | 1013.5 |
| 20260507094603 | 19 | 227 | 1.6 | 12.9 | 0.00 | 0.46 | 0.00 | 67 | 1013.5 |
| 20260507094102 | 19 | 175 | 1.6 | 12.9 | 0.00 | 0.46 | 0.00 | 70 | 1013.5 |
| 20260507093603 | 18 | 148 | 0.0 | 3.2 | 0.00 | 0.46 | 0.00 | 71 | 1013.5 |
| 20260507093102 | 19 | 297 | 0.0 | 9.7 | 0.00 | 0.46 | 0.00 | 70 | 1013.6 |
| 20260507092558 | 18 | 178 | 1.6 | 9.7 | 0.00 | 0.48 | 0.00 | 72 | 1013.5 |
| 20260507092059 | 18 | 204 | 1.6 | 11.3 | 0.00 | 0.48 | 0.00 | 73 | 1013.5 |
| 20260507090558 | 18 | 200 | 1.6 | 9.7 | 0.00 | 0.51 | 0.00 | 73 | 1013.5 |
| 20260507090059 | 18 | 213 | 1.6 | 9.7 | 0.00 | 0.51 | 0.00 | 72 | 1013.5 |
| 20260507085557 | 18 | 222 | 1.6 | 11.3 | 0.00 | 0.51 | 0.00 | 70 | 1013.5 |
| 20260507085058 | 18 | 217 | 1.6 | 11.3 | 0.00 | 0.51 | 0.00 | 70 | 1013.5 |
| 20260507084558 | 18 | 203 | 0.0 | 6.4 | 0.00 | 0.51 | 0.00 | 72 | 1013.4 |
| 20260507084059 | 18 | 304 | 0.0 | 3.2 | 0.00 | 0.51 | 0.00 | 71 | 1013.3 |
| 20260507083600 | 18 | 290 | 0.0 | 4.8 | 0.00 | 0.51 | 0.00 | 70 | 1013.4 |
| 20260507083058 | 18 | 246 | 3.2 | 12.9 | 0.00 | 0.51 | 0.00 | 71 | 1013.4 |
| 20260507082558 | 18 | 262 | 3.2 | 12.9 | 0.00 | 0.51 | 0.00 | 72 | 1013.3 |
| 20260507081558 | 18 | 229 | 1.6 | 8.0 | 0.00 | 0.51 | 0.00 | 75 | 1013.2 |
| 20260507080558 | 18 | 206 | 3.2 | 9.7 | 0.00 | 0.51 | 0.00 | 78 | 1013.3 |
| 20260507080058 | 17 | 197 | 3.2 | 9.7 | 0.00 | 0.51 | 0.00 | 79 | 1013.3 |
| 20260507075600 | 17 | 196 | 3.2 | 6.4 | 0.00 | 0.51 | 0.00 | 81 | 1013.3 |
| 20260507075058 | 17 | 215 | 3.2 | 8.0 | 0.00 | 0.51 | 0.00 | 82 | 1013.4 |
| 20260507074055 | 17 | 240 | 1.6 | 6.4 | 0.00 | 0.51 | 0.00 | 84 | 1013.3 |
| 20260507073549 | 17 | 163 | 1.6 | 6.4 | 0.00 | 0.51 | 0.00 | 87 | 1013.2 |
| 20260507073050 | 16 | 163 | 1.6 | 6.4 | 0.00 | 0.51 | 0.00 | 88 | 1013.2 |
| 20260507072548 | 16 | 224 | 1.6 | 3.2 | 0.00 | 0.51 | 0.00 | 88 | 1013.2 |
| 20260507072047 | 16 | 224 | 1.6 | 3.2 | 0.00 | 0.51 | 0.00 | 89 | 1013.2 |
| 20260507071551 | 16 | 225 | 1.6 | 3.2 | 0.00 | 0.51 | 0.00 | 89 | 1013.2 |
| 20260507071046 | 16 | 225 | 1.6 | 4.8 | 0.00 | 0.51 | 0.00 | 90 | 1013.1 |
| 20260507070543 | 16 | 225 | 3.2 | 4.8 | 0.00 | 0.51 | 0.00 | 90 | 1013.1 |
| 20260507065540 | 15 | 215 | 1.6 | 4.8 | 0.00 | 0.51 | 0.00 | 91 | 1013.0 |
| 20260507065039 | 15 | 249 | 1.6 | 4.8 | 0.00 | 0.51 | 0.00 | 91 | 1013.0 |
| 20260507064540 | 15 | 247 | 1.6 | 4.8 | 0.00 | 0.51 | 0.00 | 92 | 1012.9 |
| 20260507064040 | 15 | 246 | 1.6 | 6.4 | 0.00 | 0.51 | 0.00 | 92 | 1013.0 |
| 20260507062536 | 15 | 273 | 3.2 | 6.4 | 0.00 | 0.51 | 0.00 | 92 | 1012.8 |
| 20260507062035 | 15 | 248 | 3.2 | 6.4 | 0.00 | 0.51 | 0.00 | 92 | 1012.8 |
| 20260507061535 | 15 | 255 | 1.6 | 6.4 | 0.00 | 0.51 | 0.00 | 92 | 1012.9 |
| 20260507061034 | 14 | 259 | 0.0 | 4.8 | 0.00 | 0.51 | 0.00 | 92 | 1012.9 |
| 20260507060531 | 14 | 244 | 0.0 | 1.6 | 0.00 | 0.51 | 0.00 | 92 | 1012.8 |
| 20260507060030 | 14 | 244 | 0.0 | 0.0 | 0.00 | 0.51 | 0.00 | 92 | 1012.8 |
| 20260507055524 | 14 | 244 | 0.0 | 0.0 | 0.00 | 0.51 | 0.00 | 92 | 1012.7 |
| 20260507055024 | 13 | 244 | 0.0 | 0.0 | 0.00 | 0.51 | 0.00 | 92 | 1012.6 |
| 20260507054019 | 13 | 244 | 0.0 | 0.0 | 0.00 | 0.51 | 0.00 | 92 | 1012.5 |
| 20260507053518 | 13 | 279 | 0.0 | 0.0 | 0.00 | 0.51 | 0.00 | 92 | 1012.5 |
| 20260507053015 | 13 | 279 | 0.0 | 0.0 | 0.00 | 0.51 | 0.00 | 92 | 1012.4 |
| 20260507052515 | 13 | 280 | 0.0 | 0.0 | 0.00 | 0.51 | 0.00 | 92 | 1012.4 |
| 20260507052016 | 13 | 5 | 0.0 | 0.0 | 0.00 | 0.51 | 0.00 | 92 | 1012.4 |
| 20260507051513 | 13 | 5 | 0.0 | 0.0 | 0.00 | 0.53 | 0.00 | 92 | 1012.4 |
| 20260507051012 | 13 | 5 | 0.0 | 0.0 | 0.00 | 0.53 | 0.00 | 92 | 1012.4 |
| 20260507050511 | 13 | 5 | 0.0 | 0.0 | 0.00 | 0.53 | 0.00 | 92 | 1012.3 |
| 20260507050014 | 13 | 5 | 0.0 | 0.0 | 0.00 | 0.53 | 0.00 | 92 | 1012.3 |
| 20260507045007 | 13 | 5 | 0.0 | 1.6 | 0.00 | 0.53 | 0.00 | 92 | 1012.1 |
| 20260507044506 | 13 | 5 | 0.0 | 1.6 | 0.00 | 0.53 | 0.00 | 92 | 1012.1 |
| 20260507044003 | 13 | 5 | 0.0 | 1.6 | 0.00 | 0.53 | 0.00 | 92 | 1012.1 |
| 20260507043004 | 13 | 5 | 0.0 | 0.0 | 0.00 | 0.53 | 0.00 | 92 | 1011.9 |
| 20260507042503 | 13 | 5 | 0.0 | 0.0 | 0.00 | 0.53 | 0.00 | 92 | 1011.9 |
| 20260507042006 | 13 | 5 | 0.0 | 0.0 | 0.00 | 0.53 | 0.00 | 92 | 1011.8 |
| 20260507041501 | 13 | 5 | 0.0 | 0.0 | 0.00 | 0.53 | 0.00 | 92 | 1011.7 |
| 20260507040958 | 13 | 5 | 0.0 | 0.0 | 0.00 | 0.53 | 0.00 | 92 | 1011.7 |
| 20260507040457 | 12 | 5 | 0.0 | 0.0 | 0.00 | 0.53 | 0.00 | 92 | 1011.6 |
| 20260507035957 | 12 | 5 | 0.0 | 0.0 | 0.00 | 0.53 | 0.00 | 92 | 1011.6 |
| 20260507035455 | 12 | 5 | 0.0 | 0.0 | 0.00 | 0.53 | 0.00 | 92 | 1011.5 |
| 20260507034954 | 12 | 5 | 0.0 | 0.0 | 0.00 | 0.53 | 0.00 | 92 | 1011.6 |
| 20260507034451 | 12 | 5 | 0.0 | 0.0 | 0.00 | 0.53 | 0.00 | 92 | 1011.6 |
| 20260507033949 | 12 | 5 | 0.0 | 0.0 | 0.00 | 0.56 | 0.00 | 92 | 1011.5 |
| 20260507033447 | 12 | 5 | 0.0 | 0.0 | 0.00 | 0.58 | 0.00 | 92 | 1011.5 |
| 20260507031948 | 12 | 5 | 0.0 | 0.0 | 0.00 | 0.66 | 0.00 | 92 | 1011.4 |
| 20260507031447 | 12 | 5 | 0.0 | 1.6 | 0.00 | 0.69 | 0.00 | 92 | 1011.6 |
| 20260507030947 | 12 | 5 | 0.0 | 3.2 | 0.00 | 0.69 | 0.00 | 92 | 1011.5 |
| 20260507030448 | 12 | 5 | 1.6 | 4.8 | 0.00 | 0.69 | 0.00 | 92 | 1011.6 |
| 20260507025947 | 12 | 5 | 1.6 | 4.8 | 0.00 | 0.69 | 0.00 | 92 | 1011.5 |
| 20260507025448 | 12 | 344 | 1.6 | 4.8 | 0.00 | 0.69 | 0.00 | 92 | 1011.5 |
| 20260507024941 | 12 | 0 | 0.0 | 4.8 | 0.00 | 0.69 | 0.00 | 92 | 1011.4 |
| 20260507024437 | 12 | 34 | 0.0 | 4.8 | 0.00 | 0.69 | 0.00 | 92 | 1011.5 |
| 20260507023939 | 12 | 34 | 1.6 | 4.8 | 0.00 | 0.69 | 0.00 | 92 | 1011.4 |
| 20260507023437 | 12 | 5 | 0.0 | 4.8 | 0.00 | 0.69 | 0.00 | 92 | 1011.4 |
| 20260507022937 | 12 | 347 | 0.0 | 4.8 | 0.00 | 0.69 | 0.00 | 92 | 1011.4 |
| 20260507021935 | 12 | 328 | 0.0 | 1.6 | 0.00 | 0.69 | 0.00 | 92 | 1011.4 |
| 20260507021435 | 12 | 329 | 0.0 | 1.6 | 0.00 | 0.69 | 0.00 | 92 | 1011.3 |
| 20260507020935 | 12 | 329 | 0.0 | 1.6 | 0.00 | 0.69 | 0.00 | 92 | 1011.3 |
| 20260507015933 | 12 | 329 | 0.0 | 0.0 | 0.00 | 0.69 | 0.00 | 92 | 1011.4 |
| 20260507015431 | 13 | 329 | 0.0 | 3.2 | 0.00 | 0.69 | 0.00 | 92 | 1011.3 |
| 20260507014931 | 12 | 328 | 0.0 | 3.2 | 0.00 | 0.69 | 0.00 | 92 | 1011.3 |
| 20260507014432 | 13 | 329 | 0.0 | 3.2 | 0.00 | 0.69 | 0.00 | 92 | 1011.2 |
| 20260507013931 | 12 | 343 | 0.0 | 1.6 | 0.00 | 0.69 | 0.00 | 92 | 1011.2 |
| 20260507013431 | 12 | 350 | 0.0 | 0.0 | 0.00 | 0.69 | 0.00 | 92 | 1011.2 |
| 20260507012931 | 13 | 350 | 0.0 | 0.0 | 0.00 | 0.69 | 0.00 | 91 | 1011.2 |
| 20260507012431 | 13 | 350 | 0.0 | 0.0 | 0.00 | 0.69 | 0.00 | 91 | 1011.2 |
| 20260507011930 | 13 | 350 | 0.0 | 0.0 | 0.00 | 0.69 | 0.00 | 91 | 1011.2 |
| 20260507011431 | 13 | 350 | 0.0 | 0.0 | 0.00 | 0.69 | 0.00 | 92 | 1011.2 |
| 20260507010432 | 13 | 350 | 0.0 | 0.0 | 0.00 | 0.69 | 0.00 | 92 | 1011.3 |
| 20260507005931 | 13 | 350 | 0.0 | 0.0 | 0.00 | 0.69 | 0.00 | 92 | 1011.2 |
| 20260507005434 | 13 | 350 | 0.0 | 0.0 | 0.00 | 0.69 | 0.00 | 92 | 1011.4 |
| 20260507004930 | 13 | 350 | 0.0 | 3.2 | 0.00 | 0.69 | 0.00 | 92 | 1011.3 |
| 20260507004431 | 13 | 350 | 0.0 | 3.2 | 0.00 | 0.69 | 0.00 | 92 | 1011.4 |
| 20260507003932 | 13 | 350 | 0.0 | 3.2 | 0.00 | 0.69 | 0.00 | 91 | 1011.3 |
| 20260507003430 | 13 | 355 | 0.0 | 0.0 | 0.00 | 0.69 | 0.00 | 91 | 1011.3 |
| 20260507002931 | 13 | 355 | 0.0 | 0.0 | 0.00 | 0.69 | 0.00 | 91 | 1011.2 |
| 20260507002430 | 13 | 355 | 0.0 | 0.0 | 0.00 | 0.69 | 0.00 | 91 | 1011.3 |
| 20260507001931 | 13 | 355 | 0.0 | 0.0 | 0.00 | 0.69 | 0.00 | 91 | 1011.1 |
| 20260507001432 | 13 | 355 | 0.0 | 0.0 | 0.00 | 0.69 | 0.00 | 91 | 1011.0 |
| 20260507000931 | 13 | 355 | 0.0 | 0.0 | 0.00 | 0.69 | 0.00 | 91 | 1011.1 |
| 20260507000428 | 13 | 355 | 0.0 | 0.0 | 0.00 | 0.69 | 0.00 | 91 | 1011.1 |
| 20260506235417 | 13 | 355 | 0.0 | 3.2 | 0.00 | 0.69 | 0.00 | 91 | 1011.3 |
| 20260506234910 | 13 | 355 | 0.0 | 1.6 | 0.00 | 0.69 | 0.00 | 91 | 1011.3 |
| 20260506234403 | 13 | 355 | 0.0 | 1.6 | 0.00 | 0.69 | 0.00 | 91 | 1011.3 |
| 20260506233902 | 13 | 355 | 0.0 | 1.6 | 0.00 | 0.69 | 0.00 | 91 | 1011.2 |
| 20260506233403 | 13 | 355 | 0.0 | 0.0 | 0.00 | 0.69 | 0.00 | 91 | 1011.3 |
| 20260506232903 | 13 | 355 | 0.0 | 0.0 | 0.00 | 0.69 | 0.00 | 91 | 1011.2 |
| 20260506232403 | 13 | 355 | 0.0 | 0.0 | 0.00 | 0.69 | 0.00 | 91 | 1011.2 |
| 20260506231903 | 13 | 355 | 0.0 | 0.0 | 0.00 | 0.69 | 0.00 | 91 | 1011.2 |
| 20260506231403 | 13 | 355 | 0.0 | 0.0 | 0.00 | 0.69 | 0.00 | 91 | 1011.2 |
| 20260506230903 | 13 | 355 | 0.0 | 0.0 | 0.00 | 0.69 | 0.00 | 91 | 1011.2 |
| 20260506225902 | 13 | 355 | 0.0 | 3.2 | 0.00 | 0.69 | 0.00 | 91 | 1011.1 |
| 20260506225402 | 13 | 355 | 0.0 | 3.2 | 0.00 | 0.69 | 0.00 | 91 | 1011.1 |
| 20260506224904 | 13 | 27 | 0.0 | 0.0 | 0.00 | 0.69 | 0.00 | 91 | 1011.1 |
| 20260506224404 | 13 | 27 | 0.0 | 0.0 | 0.00 | 0.69 | 0.00 | 91 | 1011.1 |
| 20260506223402 | 13 | 27 | 0.0 | 3.2 | 0.00 | 0.69 | 0.00 | 91 | 1011.2 |
| 20260506222903 | 13 | 27 | 0.0 | 0.0 | 0.00 | 0.69 | 0.00 | 91 | 1011.2 |
| 20260506222402 | 14 | 27 | 0.0 | 0.0 | 0.00 | 0.69 | 0.00 | 91 | 1011.2 |
| 20260506221902 | 14 | 27 | 0.0 | 0.0 | 0.00 | 0.69 | 0.00 | 91 | 1011.2 |